sensor_id;sensor_type;location;lat;lon;timestamp;pressure;altitude;pressure_sealevel;temperature;humidity
13029;BME280;6581;42.662;23.402;2023-10-31T00:00:19;95539.78;;;12.75;91.98
13029;BME280;6581;42.662;23.402;2023-10-31T00:02:47;95542.75;;;12.70;92.17
13029;BME280;6581;42.662;23.402;2023-10-31T00:05:15;95534.09;;;12.73;91.71
13029;BME280;6581;42.662;23.402;2023-10-31T00:07:42;95549.66;;;12.75;91.64
13029;BME280;6581;42.662;23.402;2023-10-31T00:10:09;95549.72;;;12.82;90.94
13029;BME280;6581;42.662;23.402;2023-10-31T00:12:36;95543.66;;;12.81;90.55
13029;BME280;6581;42.662;23.402;2023-10-31T00:15:05;95533.00;;;12.78;90.36
13029;BME280;6581;42.662;23.402;2023-10-31T00:17:32;95535.66;;;12.78;90.10
13029;BME280;6581;42.662;23.402;2023-10-31T00:20:00;95529.53;;;12.74;90.42
13029;BME280;6581;42.662;23.402;2023-10-31T00:22:27;95529.47;;;12.70;90.48
13029;BME280;6581;42.662;23.402;2023-10-31T00:24:54;95525.31;;;12.69;90.67
13029;BME280;6581;42.662;23.402;2023-10-31T00:27:22;95529.78;;;12.62;90.94
13029;BME280;6581;42.662;23.402;2023-10-31T00:29:49;95525.53;;;12.57;90.80
13029;BME280;6581;42.662;23.402;2023-10-31T00:32:16;95522.88;;;12.57;90.89
13029;BME280;6581;42.662;23.402;2023-10-31T00:34:43;95525.91;;;12.56;90.59
13029;BME280;6581;42.662;23.402;2023-10-31T00:37:11;95527.00;;;12.51;91.25
13029;BME280;6581;42.662;23.402;2023-10-31T00:39:39;95528.13;;;12.50;91.39
13029;BME280;6581;42.662;23.402;2023-10-31T00:42:06;95526.59;;;12.49;90.84
13029;BME280;6581;42.662;23.402;2023-10-31T00:44:34;95519.31;;;12.42;91.58
13029;BME280;6581;42.662;23.402;2023-10-31T00:47:01;95518.13;;;12.36;92.52
13029;BME280;6581;42.662;23.402;2023-10-31T00:49:30;95510.47;;;12.31;93.18
13029;BME280;6581;42.662;23.402;2023-10-31T00:51:57;95507.81;;;12.31;93.39
13029;BME280;6581;42.662;23.402;2023-10-31T00:54:26;95508.13;;;12.26;93.82
13029;BME280;6581;42.662;23.402;2023-10-31T00:56:53;95508.00;;;12.16;94.20
13029;BME280;6581;42.662;23.402;2023-10-31T00:59:20;95503.81;;;12.15;94.54
13029;BME280;6581;42.662;23.402;2023-10-31T01:01:48;95506.81;;;12.10;94.75
13029;BME280;6581;42.662;23.402;2023-10-31T01:04:15;95513.59;;;12.07;93.86
13029;BME280;6581;42.662;23.402;2023-10-31T01:06:43;95506.06;;;11.83;94.56
13029;BME280;6581;42.662;23.402;2023-10-31T01:09:10;95497.09;;;11.91;94.41
13029;BME280;6581;42.662;23.402;2023-10-31T01:11:40;95504.63;;;11.89;94.61
13029;BME280;6581;42.662;23.402;2023-10-31T01:14:07;95501.22;;;11.88;94.29
13029;BME280;6581;42.662;23.402;2023-10-31T01:16:34;95491.41;;;11.92;93.92
13029;BME280;6581;42.662;23.402;2023-10-31T01:19:01;95487.63;;;11.93;93.79
13029;BME280;6581;42.662;23.402;2023-10-31T01:21:29;95488.47;;;12.01;93.33
13029;BME280;6581;42.662;23.402;2023-10-31T01:23:56;95482.44;;;12.04;93.39
13029;BME280;6581;42.662;23.402;2023-10-31T01:26:23;95486.28;;;12.10;92.82
13029;BME280;6581;42.662;23.402;2023-10-31T01:28:52;95486.75;;;12.16;92.33
13029;BME280;6581;42.662;23.402;2023-10-31T01:31:19;95496.25;;;12.17;92.32
13029;BME280;6581;42.662;23.402;2023-10-31T01:33:46;95489.03;;;12.14;92.03
13029;BME280;6581;42.662;23.402;2023-10-31T01:36:13;95487.16;;;12.18;92.41
13029;BME280;6581;42.662;23.402;2023-10-31T01:38:40;95485.28;;;12.18;91.80
13029;BME280;6581;42.662;23.402;2023-10-31T01:41:07;95476.94;;;12.20;91.64
13029;BME280;6581;42.662;23.402;2023-10-31T01:43:35;95477.66;;;12.17;91.82
13029;BME280;6581;42.662;23.402;2023-10-31T01:46:05;95475.69;;;12.10;92.29
13029;BME280;6581;42.662;23.402;2023-10-31T01:48:32;95481.72;;;12.07;91.84
13029;BME280;6581;42.662;23.402;2023-10-31T01:51:02;95483.28;;;12.12;91.75
13029;BME280;6581;42.662;23.402;2023-10-31T01:53:31;95480.19;;;12.06;91.32
13029;BME280;6581;42.662;23.402;2023-10-31T01:55:59;95480.25;;;12.10;91.41
13029;BME280;6581;42.662;23.402;2023-10-31T01:58:29;95477.22;;;12.11;90.84
13029;BME280;6581;42.662;23.402;2023-10-31T02:00:57;95479.06;;;12.07;91.05
13029;BME280;6581;42.662;23.402;2023-10-31T02:03:27;95477.03;;;11.97;91.86
13029;BME280;6581;42.662;23.402;2023-10-31T02:05:55;95474.69;;;11.92;91.65
13029;BME280;6581;42.662;23.402;2023-10-31T02:08:22;95478.19;;;11.96;91.50
13029;BME280;6581;42.662;23.402;2023-10-31T02:10:50;95466.81;;;11.95;91.23
13029;BME280;6581;42.662;23.402;2023-10-31T02:13:18;95466.41;;;11.97;91.20
13029;BME280;6581;42.662;23.402;2023-10-31T02:15:46;95469.78;;;11.90;91.06
13029;BME280;6581;42.662;23.402;2023-10-31T02:18:13;95457.91;;;11.81;91.82
13029;BME280;6581;42.662;23.402;2023-10-31T02:20:42;95466.94;;;11.76;92.08
13029;BME280;6581;42.662;23.402;2023-10-31T02:23:11;95465.34;;;11.72;91.98
13029;BME280;6581;42.662;23.402;2023-10-31T02:25:38;95471.69;;;11.64;92.51
13029;BME280;6581;42.662;23.402;2023-10-31T02:28:05;95460.19;;;11.56;92.90
13029;BME280;6581;42.662;23.402;2023-10-31T02:30:34;95462.38;;;11.50;92.99
13029;BME280;6581;42.662;23.402;2023-10-31T02:33:02;95465.03;;;11.50;92.99
13029;BME280;6581;42.662;23.402;2023-10-31T02:35:29;95455.94;;;11.51;93.16
13029;BME280;6581;42.662;23.402;2023-10-31T02:37:56;95462.28;;;11.43;93.19
13029;BME280;6581;42.662;23.402;2023-10-31T02:40:25;95457.25;;;11.35;93.53
13029;BME280;6581;42.662;23.402;2023-10-31T02:42:52;95456.38;;;11.27;93.98
13029;BME280;6581;42.662;23.402;2023-10-31T02:45:19;95458.56;;;11.22;93.48
13029;BME280;6581;42.662;23.402;2023-10-31T02:47:46;95459.22;;;11.15;93.68
13029;BME280;6581;42.662;23.402;2023-10-31T02:50:13;95452.38;;;11.14;94.07
13029;BME280;6581;42.662;23.402;2023-10-31T02:52:40;95451.50;;;11.06;94.91
13029;BME280;6581;42.662;23.402;2023-10-31T02:55:08;95461.25;;;10.99;95.51
13029;BME280;6581;42.662;23.402;2023-10-31T02:57:37;95467.97;;;10.93;96.47
13029;BME280;6581;42.662;23.402;2023-10-31T03:00:07;95459.72;;;10.75;97.78
13029;BME280;6581;42.662;23.402;2023-10-31T03:02:34;95457.72;;;10.68;99.29
13029;BME280;6581;42.662;23.402;2023-10-31T03:05:02;95456.91;;;10.64;100.00
13029;BME280;6581;42.662;23.402;2023-10-31T03:07:29;95461.66;;;10.55;100.00
13029;BME280;6581;42.662;23.402;2023-10-31T03:09:56;95469.59;;;10.55;100.00
13029;BME280;6581;42.662;23.402;2023-10-31T03:12:24;95454.81;;;10.54;100.00
13029;BME280;6581;42.662;23.402;2023-10-31T03:14:52;95463.91;;;10.53;100.00
13029;BME280;6581;42.662;23.402;2023-10-31T03:17:19;95466.03;;;10.44;100.00
13029;BME280;6581;42.662;23.402;2023-10-31T03:19:46;95465.09;;;10.37;100.00
13029;BME280;6581;42.662;23.402;2023-10-31T03:22:13;95465.75;;;10.30;100.00
13029;BME280;6581;42.662;23.402;2023-10-31T03:24:41;95467.22;;;10.28;100.00
13029;BME280;6581;42.662;23.402;2023-10-31T03:27:08;95463.78;;;10.27;100.00
13029;BME280;6581;42.662;23.402;2023-10-31T03:29:35;95469.19;;;10.31;100.00
13029;BME280;6581;42.662;23.402;2023-10-31T03:32:05;95448.28;;;10.26;100.00
13029;BME280;6581;42.662;23.402;2023-10-31T03:34:32;95443.31;;;10.24;100.00
13029;BME280;6581;42.662;23.402;2023-10-31T03:36:59;95447.78;;;10.20;100.00
13029;BME280;6581;42.662;23.402;2023-10-31T03:39:26;95447.06;;;10.23;100.00
13029;BME280;6581;42.662;23.402;2023-10-31T03:41:53;95435.38;;;10.24;100.00
13029;BME280;6581;42.662;23.402;2023-10-31T03:44:24;95432.44;;;10.29;100.00
13029;BME280;6581;42.662;23.402;2023-10-31T03:46:51;95428.75;;;10.34;100.00
13029;BME280;6581;42.662;23.402;2023-10-31T03:49:20;95430.63;;;10.33;100.00
13029;BME280;6581;42.662;23.402;2023-10-31T03:51:47;95439.75;;;10.36;100.00
13029;BME280;6581;42.662;23.402;2023-10-31T03:54:14;95436.34;;;10.35;100.00
13029;BME280;6581;42.662;23.402;2023-10-31T03:56:42;95426.88;;;10.34;100.00
13029;BME280;6581;42.662;23.402;2023-10-31T03:59:10;95436.75;;;10.37;100.00
13029;BME280;6581;42.662;23.402;2023-10-31T04:01:37;95436.75;;;10.37;100.00
13029;BME280;6581;42.662;23.402;2023-10-31T04:04:05;95436.16;;;10.47;100.00
13029;BME280;6581;42.662;23.402;2023-10-31T04:06:35;95438.28;;;10.38;100.00
13029;BME280;6581;42.662;23.402;2023-10-31T04:09:06;95440.09;;;10.34;100.00
13029;BME280;6581;42.662;23.402;2023-10-31T04:11:33;95435.44;;;10.28;100.00
13029;BME280;6581;42.662;23.402;2023-10-31T04:14:00;95450.84;;;10.22;100.00
13029;BME280;6581;42.662;23.402;2023-10-31T04:16:28;95444.81;;;10.21;100.00
13029;BME280;6581;42.662;23.402;2023-10-31T04:18:56;95440.34;;;10.26;100.00
13029;BME280;6581;42.662;23.402;2023-10-31T04:21:23;95434.56;;;10.20;100.00
13029;BME280;6581;42.662;23.402;2023-10-31T04:23:51;95429.19;;;10.16;100.00
13029;BME280;6581;42.662;23.402;2023-10-31T04:26:18;95429.19;;;10.16;100.00
13029;BME280;6581;42.662;23.402;2023-10-31T04:28:45;95426.56;;;10.16;100.00
13029;BME280;6581;42.662;23.402;2023-10-31T04:31:12;95418.16;;;10.14;100.00
13029;BME280;6581;42.662;23.402;2023-10-31T04:33:40;95416.91;;;10.08;100.00
13029;BME280;6581;42.662;23.402;2023-10-31T04:36:08;95404.66;;;10.00;100.00
13029;BME280;6581;42.662;23.402;2023-10-31T04:38:36;95420.59;;;10.04;100.00
13029;BME280;6581;42.662;23.402;2023-10-31T04:41:05;95409.59;;;10.02;100.00
13029;BME280;6581;42.662;23.402;2023-10-31T04:43:32;95407.72;;;10.02;100.00
13029;BME280;6581;42.662;23.402;2023-10-31T04:45:59;95417.50;;;9.98;100.00
13029;BME280;6581;42.662;23.402;2023-10-31T04:48:26;95419.38;;;9.98;100.00
13029;BME280;6581;42.662;23.402;2023-10-31T04:50:53;95420.34;;;9.90;100.00
13029;BME280;6581;42.662;23.402;2023-10-31T04:53:22;95427.38;;;9.82;100.00
13029;BME280;6581;42.662;23.402;2023-10-31T04:55:49;95437.75;;;9.71;100.00
13029;BME280;6581;42.662;23.402;2023-10-31T04:58:17;95441.84;;;9.69;100.00
13029;BME280;6581;42.662;23.402;2023-10-31T05:00:46;95444.09;;;9.67;100.00
13029;BME280;6581;42.662;23.402;2023-10-31T05:03:13;95441.63;;;9.58;100.00
13029;BME280;6581;42.662;23.402;2023-10-31T05:05:40;95450.84;;;9.49;100.00
13029;BME280;6581;42.662;23.402;2023-10-31T05:08:07;95444.06;;;9.48;100.00
13029;BME280;6581;42.662;23.402;2023-10-31T05:10:34;95438.59;;;9.41;100.00
13029;BME280;6581;42.662;23.402;2023-10-31T05:13:01;95441.25;;;9.41;100.00
13029;BME280;6581;42.662;23.402;2023-10-31T05:15:30;95448.84;;;9.42;100.00
13029;BME280;6581;42.662;23.402;2023-10-31T05:17:58;95436.78;;;9.45;100.00
13029;BME280;6581;42.662;23.402;2023-10-31T05:20:25;95440.97;;;9.46;100.00
13029;BME280;6581;42.662;23.402;2023-10-31T05:22:52;95427.00;;;9.45;100.00
13029;BME280;6581;42.662;23.402;2023-10-31T05:25:19;95438.34;;;9.46;100.00
13029;BME280;6581;42.662;23.402;2023-10-31T05:27:46;95436.78;;;9.45;100.00
13029;BME280;6581;42.662;23.402;2023-10-31T05:30:14;95449.53;;;9.39;100.00
13029;BME280;6581;42.662;23.402;2023-10-31T05:32:43;95437.50;;;9.42;100.00
13029;BME280;6581;42.662;23.402;2023-10-31T05:35:11;95450.13;;;9.48;100.00
13029;BME280;6581;42.662;23.402;2023-10-31T05:37:38;95443.78;;;9.53;100.00
13029;BME280;6581;42.662;23.402;2023-10-31T05:40:06;95445.81;;;9.59;100.00
13029;BME280;6581;42.662;23.402;2023-10-31T05:42:33;95453.41;;;9.61;100.00
13029;BME280;6581;42.662;23.402;2023-10-31T05:45:01;95456.88;;;9.65;100.00
13029;BME280;6581;42.662;23.402;2023-10-31T05:47:28;95459.97;;;9.67;100.00
13029;BME280;6581;42.662;23.402;2023-10-31T05:49:56;95453.31;;;9.76;100.00
13029;BME280;6581;42.662;23.402;2023-10-31T05:52:27;95462.88;;;9.81;100.00
13029;BME280;6581;42.662;23.402;2023-10-31T05:54:55;95452.28;;;9.81;100.00
13029;BME280;6581;42.662;23.402;2023-10-31T05:57:22;95456.19;;;9.87;100.00
13029;BME280;6581;42.662;23.402;2023-10-31T05:59:49;95443.31;;;9.86;100.00
13029;BME280;6581;42.662;23.402;2023-10-31T06:02:16;95467.78;;;9.98;100.00
13029;BME280;6581;42.662;23.402;2023-10-31T06:04:43;95476.47;;;9.99;100.00
13029;BME280;6581;42.662;23.402;2023-10-31T06:07:12;95476.72;;;9.74;100.00
13029;BME280;6581;42.662;23.402;2023-10-31T06:09:39;95488.41;;;9.73;100.00
13029;BME280;6581;42.662;23.402;2023-10-31T06:12:06;95472.16;;;9.71;100.00
13029;BME280;6581;42.662;23.402;2023-10-31T06:14:33;95489.25;;;9.77;100.00
13029;BME280;6581;42.662;23.402;2023-10-31T06:17:01;95484.59;;;9.71;100.00
13029;BME280;6581;42.662;23.402;2023-10-31T06:19:28;95477.50;;;9.75;100.00
13029;BME280;6581;42.662;23.402;2023-10-31T06:21:55;95483.56;;;9.75;100.00
13029;BME280;6581;42.662;23.402;2023-10-31T06:24:24;95491.63;;;9.83;100.00
13029;BME280;6581;42.662;23.402;2023-10-31T06:26:51;95482.25;;;9.85;100.00
13029;BME280;6581;42.662;23.402;2023-10-31T06:29:18;95482.44;;;9.96;100.00
13029;BME280;6581;42.662;23.402;2023-10-31T06:31:45;95472.84;;;9.88;100.00
13029;BME280;6581;42.662;23.402;2023-10-31T06:34:13;95478.25;;;9.95;100.00
13029;BME280;6581;42.662;23.402;2023-10-31T06:36:40;95484.88;;;10.04;100.00
13029;BME280;6581;42.662;23.402;2023-10-31T06:39:07;95483.00;;;10.05;100.00
13029;BME280;6581;42.662;23.402;2023-10-31T06:41:36;95501.31;;;10.13;100.00
13029;BME280;6581;42.662;23.402;2023-10-31T06:44:04;95492.84;;;10.23;100.00
13029;BME280;6581;42.662;23.402;2023-10-31T06:46:31;95489.31;;;10.35;100.00
13029;BME280;6581;42.662;23.402;2023-10-31T06:48:58;95491.38;;;10.45;100.00
13029;BME280;6581;42.662;23.402;2023-10-31T06:51:25;95490.44;;;10.57;100.00
13029;BME280;6581;42.662;23.402;2023-10-31T06:53:52;95484.16;;;10.65;100.00
13029;BME280;6581;42.662;23.402;2023-10-31T06:56:20;95466.09;;;10.71;100.00
13029;BME280;6581;42.662;23.402;2023-10-31T06:58:48;95469.44;;;10.90;100.00
13029;BME280;6581;42.662;23.402;2023-10-31T07:01:15;95472.25;;;11.01;100.00
13029;BME280;6581;42.662;23.402;2023-10-31T07:03:45;95469.13;;;11.18;100.00
13029;BME280;6581;42.662;23.402;2023-10-31T07:06:12;95478.72;;;11.26;99.39
13029;BME280;6581;42.662;23.402;2023-10-31T07:08:39;95468.25;;;11.37;99.46
13029;BME280;6581;42.662;23.402;2023-10-31T07:11:06;95467.94;;;11.42;99.28
13029;BME280;6581;42.662;23.402;2023-10-31T07:13:33;95466.97;;;11.53;99.46
13029;BME280;6581;42.662;23.402;2023-10-31T07:16:02;95475.06;;;11.64;99.20
13029;BME280;6581;42.662;23.402;2023-10-31T07:18:30;95469.44;;;11.69;98.85
13029;BME280;6581;42.662;23.402;2023-10-31T07:20:57;95457.09;;;11.77;98.70
13029;BME280;6581;42.662;23.402;2023-10-31T07:23:24;95459.53;;;11.92;98.39
13029;BME280;6581;42.662;23.402;2023-10-31T07:25:51;95466.06;;;11.98;98.29
13029;BME280;6581;42.662;23.402;2023-10-31T07:28:18;95468.91;;;12.13;97.76
13029;BME280;6581;42.662;23.402;2023-10-31T07:30:45;95456.84;;;12.19;97.31
13029;BME280;6581;42.662;23.402;2023-10-31T07:33:13;95458.03;;;12.28;96.28
13029;BME280;6581;42.662;23.402;2023-10-31T07:35:41;95454.03;;;12.41;95.66
13029;BME280;6581;42.662;23.402;2023-10-31T07:38:08;95459.81;;;12.51;95.38
13029;BME280;6581;42.662;23.402;2023-10-31T07:40:35;95458.00;;;12.58;96.05
13029;BME280;6581;42.662;23.402;2023-10-31T07:43:02;95450.88;;;12.69;95.37
13029;BME280;6581;42.662;23.402;2023-10-31T07:45:29;95453.63;;;12.80;95.18
13029;BME280;6581;42.662;23.402;2023-10-31T07:47:56;95434.34;;;12.90;94.68
13029;BME280;6581;42.662;23.402;2023-10-31T07:50:25;95435.19;;;13.01;94.01
13029;BME280;6581;42.662;23.402;2023-10-31T07:52:52;95429.97;;;13.12;93.96
13029;BME280;6581;42.662;23.402;2023-10-31T07:55:18;95423.97;;;13.22;93.79
13029;BME280;6581;42.662;23.402;2023-10-31T07:57:46;95422.50;;;13.31;93.52
13029;BME280;6581;42.662;23.402;2023-10-31T08:00:13;95422.19;;;13.40;93.90
13029;BME280;6581;42.662;23.402;2023-10-31T08:02:41;95415.81;;;13.55;93.81
13029;BME280;6581;42.662;23.402;2023-10-31T08:05:09;95418.13;;;13.67;93.99
13029;BME280;6581;42.662;23.402;2023-10-31T08:07:38;95419.69;;;13.75;93.94
13029;BME280;6581;42.662;23.402;2023-10-31T08:10:06;95412.53;;;13.87;93.28
13029;BME280;6581;42.662;23.402;2023-10-31T08:12:33;95409.50;;;13.88;93.70
13029;BME280;6581;42.662;23.402;2023-10-31T08:15:01;95407.25;;;14.04;93.84
13029;BME280;6581;42.662;23.402;2023-10-31T08:17:29;95410.69;;;14.08;93.52
13029;BME280;6581;42.662;23.402;2023-10-31T08:19:56;95413.75;;;14.14;93.46
13029;BME280;6581;42.662;23.402;2023-10-31T08:22:23;95405.03;;;14.28;92.47
13029;BME280;6581;42.662;23.402;2023-10-31T08:24:52;95405.84;;;14.46;92.20
13029;BME280;6581;42.662;23.402;2023-10-31T08:27:19;95391.41;;;14.54;90.94
13029;BME280;6581;42.662;23.402;2023-10-31T08:29:46;95397.50;;;14.72;89.02
13029;BME280;6581;42.662;23.402;2023-10-31T08:32:13;95386.06;;;14.82;88.07
13029;BME280;6581;42.662;23.402;2023-10-31T08:34:40;95378.47;;;14.88;87.58
13029;BME280;6581;42.662;23.402;2023-10-31T08:37:07;95374.66;;;15.03;87.93
13029;BME280;6581;42.662;23.402;2023-10-31T08:39:35;95368.53;;;15.09;87.02
13029;BME280;6581;42.662;23.402;2023-10-31T08:42:04;95361.66;;;15.19;84.54
13029;BME280;6581;42.662;23.402;2023-10-31T08:44:31;95357.44;;;15.25;84.19
13029;BME280;6581;42.662;23.402;2023-10-31T08:46:59;95365.41;;;15.36;83.85
13029;BME280;6581;42.662;23.402;2023-10-31T08:49:26;95358.53;;;15.42;83.77
13029;BME280;6581;42.662;23.402;2023-10-31T08:51:53;95356.25;;;15.44;83.22
13029;BME280;6581;42.662;23.402;2023-10-31T08:54:20;95351.31;;;15.53;81.78
13029;BME280;6581;42.662;23.402;2023-10-31T08:56:47;95350.91;;;15.58;79.62
13029;BME280;6581;42.662;23.402;2023-10-31T08:59:16;95335.22;;;15.64;79.85
13029;BME280;6581;42.662;23.402;2023-10-31T09:01:43;95328.31;;;15.73;78.69
13029;BME280;6581;42.662;23.402;2023-10-31T09:04:10;95315.28;;;15.86;78.68
13029;BME280;6581;42.662;23.402;2023-10-31T09:06:37;95318.69;;;15.93;77.69
13029;BME280;6581;42.662;23.402;2023-10-31T09:09:04;95317.94;;;15.89;77.67
13029;BME280;6581;42.662;23.402;2023-10-31T09:11:32;95320.53;;;16.00;77.88
13029;BME280;6581;42.662;23.402;2023-10-31T09:13:59;95302.19;;;16.06;76.95
13029;BME280;6581;42.662;23.402;2023-10-31T09:16:27;95301.41;;;16.12;76.33
13029;BME280;6581;42.662;23.402;2023-10-31T09:18:54;95297.53;;;16.13;75.71
13029;BME280;6581;42.662;23.402;2023-10-31T09:21:21;95291.34;;;16.27;75.21
13029;BME280;6581;42.662;23.402;2023-10-31T09:23:48;95290.50;;;16.40;74.36
13029;BME280;6581;42.662;23.402;2023-10-31T09:26:15;95286.22;;;16.47;74.04
13029;BME280;6581;42.662;23.402;2023-10-31T09:28:43;95291.88;;;16.59;70.20
13029;BME280;6581;42.662;23.402;2023-10-31T09:31:15;95285.75;;;16.62;69.35
13029;BME280;6581;42.662;23.402;2023-10-31T09:33:45;95277.63;;;16.73;68.82
13029;BME280;6581;42.662;23.402;2023-10-31T09:36:12;95268.34;;;16.84;68.62
13029;BME280;6581;42.662;23.402;2023-10-31T09:38:40;95270.19;;;16.91;66.77
13029;BME280;6581;42.662;23.402;2023-10-31T09:41:07;95260.53;;;17.01;67.05
13029;BME280;6581;42.662;23.402;2023-10-31T09:43:34;95265.81;;;17.08;65.56
13029;BME280;6581;42.662;23.402;2023-10-31T09:46:01;95253.88;;;17.16;65.21
13029;BME280;6581;42.662;23.402;2023-10-31T09:48:29;95244.63;;;17.20;64.49
13029;BME280;6581;42.662;23.402;2023-10-31T09:50:58;95238.75;;;17.33;63.75
13029;BME280;6581;42.662;23.402;2023-10-31T09:53:27;95239.44;;;17.40;62.98
13029;BME280;6581;42.662;23.402;2023-10-31T09:56:15;95235.00;;;17.57;63.09
13029;BME280;6581;42.662;23.402;2023-10-31T09:58:42;95225.72;;;17.65;62.49
13029;BME280;6581;42.662;23.402;2023-10-31T10:01:10;95218.38;;;17.73;62.74
13029;BME280;6581;42.662;23.402;2023-10-31T10:03:38;95214.38;;;17.84;63.06
13029;BME280;6581;42.662;23.402;2023-10-31T10:06:07;95223.34;;;17.97;61.87
13029;BME280;6581;42.662;23.402;2023-10-31T10:08:37;95214.09;;;18.02;60.72
13029;BME280;6581;42.662;23.402;2023-10-31T10:11:05;95209.69;;;18.15;60.18
13029;BME280;6581;42.662;23.402;2023-10-31T10:13:32;95193.56;;;18.19;59.21
13029;BME280;6581;42.662;23.402;2023-10-31T10:15:59;95190.69;;;18.29;58.96
13029;BME280;6581;42.662;23.402;2023-10-31T10:18:27;95179.59;;;18.50;58.58
13029;BME280;6581;42.662;23.402;2023-10-31T10:20:56;95173.25;;;18.64;57.82
13029;BME280;6581;42.662;23.402;2023-10-31T10:23:25;95173.31;;;18.80;56.87
13029;BME280;6581;42.662;23.402;2023-10-31T10:25:53;95171.03;;;18.98;55.67
13029;BME280;6581;42.662;23.402;2023-10-31T10:28:22;95164.44;;;19.03;53.97
13029;BME280;6581;42.662;23.402;2023-10-31T10:30:50;95164.50;;;19.19;53.77
13029;BME280;6581;42.662;23.402;2023-10-31T10:33:18;95165.91;;;19.43;53.23
13029;BME280;6581;42.662;23.402;2023-10-31T10:35:45;95155.28;;;19.56;52.46
13029;BME280;6581;42.662;23.402;2023-10-31T10:38:13;95154.91;;;19.74;52.04
13029;BME280;6581;42.662;23.402;2023-10-31T10:40:44;95155.81;;;19.83;51.40
13029;BME280;6581;42.662;23.402;2023-10-31T10:43:13;95156.56;;;20.00;49.37
13029;BME280;6581;42.662;23.402;2023-10-31T10:45:45;95142.78;;;20.14;48.64
13029;BME280;6581;42.662;23.402;2023-10-31T10:48:16;95131.41;;;20.23;48.71
13029;BME280;6581;42.662;23.402;2023-10-31T10:50:49;95130.00;;;20.34;46.81
13029;BME280;6581;42.662;23.402;2023-10-31T10:53:22;95124.94;;;20.53;46.65
13029;BME280;6581;42.662;23.402;2023-10-31T10:55:55;95124.31;;;20.61;46.35
13029;BME280;6581;42.662;23.402;2023-10-31T10:58:30;95116.44;;;20.67;45.46
13029;BME280;6581;42.662;23.402;2023-10-31T11:01:01;95111.34;;;20.85;45.16
13029;BME280;6581;42.662;23.402;2023-10-31T11:03:29;95098.88;;;21.04;44.20
13029;BME280;6581;42.662;23.402;2023-10-31T11:05:56;95099.34;;;20.73;43.63
13029;BME280;6581;42.662;23.402;2023-10-31T11:08:24;95088.69;;;20.70;43.78
13029;BME280;6581;42.662;23.402;2023-10-31T11:10:55;95090.34;;;20.80;43.54
13029;BME280;6581;42.662;23.402;2023-10-31T11:13:22;95085.91;;;20.86;43.84
13029;BME280;6581;42.662;23.402;2023-10-31T11:15:53;95087.13;;;20.98;43.23
13029;BME280;6581;42.662;23.402;2023-10-31T11:18:23;95085.13;;;21.14;43.57
13029;BME280;6581;42.662;23.402;2023-10-31T11:20:52;95073.28;;;21.25;42.74
13029;BME280;6581;42.662;23.402;2023-10-31T11:23:19;95071.47;;;21.21;42.69
13029;BME280;6581;42.662;23.402;2023-10-31T11:25:49;95070.38;;;21.32;42.95
13029;BME280;6581;42.662;23.402;2023-10-31T11:28:20;95066.06;;;21.47;43.18
13029;BME280;6581;42.662;23.402;2023-10-31T11:30:48;95058.09;;;21.43;42.67
13029;BME280;6581;42.662;23.402;2023-10-31T11:33:19;95052.16;;;21.36;43.61
13029;BME280;6581;42.662;23.402;2023-10-31T11:35:50;95053.97;;;21.51;42.57
13029;BME280;6581;42.662;23.402;2023-10-31T11:38:30;95041.34;;;21.61;42.33
13029;BME280;6581;42.662;23.402;2023-10-31T11:40:59;95040.56;;;21.73;41.92
13029;BME280;6581;42.662;23.402;2023-10-31T11:43:50;95038.16;;;21.88;41.88
13029;BME280;6581;42.662;23.402;2023-10-31T11:46:18;95026.59;;;22.00;41.52
13029;BME280;6581;42.662;23.402;2023-10-31T11:48:47;95026.56;;;22.13;41.06
13029;BME280;6581;42.662;23.402;2023-10-31T11:51:15;95019.19;;;22.26;40.74
13029;BME280;6581;42.662;23.402;2023-10-31T11:53:43;95012.34;;;22.34;40.42
13029;BME280;6581;42.662;23.402;2023-10-31T11:56:18;95014.47;;;22.39;40.21
13029;BME280;6581;42.662;23.402;2023-10-31T11:58:56;95014.34;;;22.21;40.86
13029;BME280;6581;42.662;23.402;2023-10-31T12:01:23;95006.50;;;22.35;40.63
13029;BME280;6581;42.662;23.402;2023-10-31T12:03:51;95006.03;;;22.37;41.01
13029;BME280;6581;42.662;23.402;2023-10-31T12:06:18;95000.22;;;22.38;41.00
13029;BME280;6581;42.662;23.402;2023-10-31T12:08:48;94998.59;;;22.41;41.03
13029;BME280;6581;42.662;23.402;2023-10-31T12:11:16;95002.78;;;22.42;41.00
13029;BME280;6581;42.662;23.402;2023-10-31T12:13:53;94990.19;;;22.39;41.25
13029;BME280;6581;42.662;23.402;2023-10-31T12:16:25;94980.28;;;22.36;41.38
13029;BME280;6581;42.662;23.402;2023-10-31T12:18:57;94982.03;;;22.30;41.02
13029;BME280;6581;42.662;23.402;2023-10-31T12:21:37;94976.38;;;22.37;41.21
13029;BME280;6581;42.662;23.402;2023-10-31T12:24:05;94977.75;;;22.41;40.83
13029;BME280;6581;42.662;23.402;2023-10-31T12:26:33;94980.78;;;22.22;41.20
13029;BME280;6581;42.662;23.402;2023-10-31T12:29:08;94982.91;;;22.27;41.11
13029;BME280;6581;42.662;23.402;2023-10-31T12:31:42;94981.63;;;22.19;41.35
13029;BME280;6581;42.662;23.402;2023-10-31T12:34:09;94985.53;;;22.39;40.88
13029;BME280;6581;42.662;23.402;2023-10-31T12:36:36;94974.63;;;22.43;40.74
13029;BME280;6581;42.662;23.402;2023-10-31T12:39:05;94961.38;;;22.36;40.64
13029;BME280;6581;42.662;23.402;2023-10-31T12:41:35;94967.97;;;22.35;40.63
13029;BME280;6581;42.662;23.402;2023-10-31T12:44:03;94954.44;;;22.26;40.63
13029;BME280;6581;42.662;23.402;2023-10-31T12:46:32;94944.06;;;22.02;40.95
13029;BME280;6581;42.662;23.402;2023-10-31T12:49:02;94952.03;;;22.06;41.16
13029;BME280;6581;42.662;23.402;2023-10-31T12:51:29;94949.97;;;22.10;40.93
13029;BME280;6581;42.662;23.402;2023-10-31T12:53:56;94948.16;;;22.07;40.96
13029;BME280;6581;42.662;23.402;2023-10-31T12:56:41;94944.78;;;21.94;41.38
13029;BME280;6581;42.662;23.402;2023-10-31T12:59:09;94937.72;;;21.96;41.29
13029;BME280;6581;42.662;23.402;2023-10-31T13:01:42;94940.63;;;22.02;41.46